• Join FlightAware (Why Join?)
  • Login
  • US Flag 
07:55PM EST


 

Airport Tracker/Info


-or-


 

Live Flight TrackerFlight Track Log ✈ VH-BXJ ✈ 10-May-2013 ✈ YSCB / CBR - YSBK / BWU

Flight Track Log - Related Links

Times and Time Zones

All times are in EDT time to prevent confusion due to time zone crossing. See the VH-BXJ flight status page for this flight to view local times or setup timezone preferences in your user account.

Time Position Orientation Groundspeed Altitude Reporting Facility
EDT Latitude Longitude Course Direction KTS MPH feet Rate Location/Type
05:18AM -35.2933 149.1937 360° North 115 132 2,500  Level Aus ATC (RADAR)
05:19AM -35.2688 149.1938 360° North 117 135 3,300 960 Climbing Aus ATC (RADAR)
05:19AM -35.2511 149.1966 North 114 131 3,800 720 Climbing Aus ATC (RADAR)
05:20AM -35.2356 149.2188 50° Northeast 119 137 4,300 720 Climbing Aus ATC (RADAR)
05:21AM -35.2252 149.2325 47° Northeast 130 150 4,700 1,020 Climbing Aus ATC (RADAR)
05:21AM -35.2127 149.2573 58° Northeast 127 146 5,400 840 Climbing Aus ATC (RADAR)
05:22AM -35.1957 149.2978 63° Northeast 132 152 6,100 660 Climbing Aus ATC (RADAR)
05:23AM -35.1877 149.3156 61° Northeast 139 160 6,400 780 Climbing Aus ATC (RADAR)
05:23AM -35.1724 149.3392 52° Northeast 137 158 7,000 600 Climbing Aus ATC (RADAR)
05:24AM -35.1463 149.3666 41° Northeast 151 174 7,300 60 Climbing Aus ATC (RADAR)
05:25AM -35.1260 149.3893 42° Northeast 165 190 7,100 -120 Descending Aus ATC (RADAR)
05:25AM -35.0985 149.4179 40° Northeast 169 194 7,200 -120 Climbing Aus ATC (RADAR)
05:26AM -35.0819 149.4341 38° Northeast 178 205 7,000 60 Descending Aus ATC (RADAR)
05:26AM -35.0613 149.4565 42° Northeast 171 197 7,300 120 Climbing Aus ATC (RADAR)
05:27AM -35.0275 149.4934 42° Northeast 176 203 7,200 -120 Descending Aus ATC (RADAR)
05:28AM -35.0121 149.5096 41° Northeast 175 201 7,200 -120 Level Aus ATC (RADAR)
05:28AM -34.9893 149.5312 38° Northeast 177 204 7,100  Descending Aus ATC (RADAR)
05:29AM -34.9601 149.5584 37° Northeast 175 201 7,200 120 Climbing Aus ATC (RADAR)
05:30AM -34.9378 149.5794 38° Northeast 174 200 7,300 60 Climbing Aus ATC (RADAR)
05:30AM -34.9087 149.6065 37° Northeast 174 200 7,300 -180 Level Aus ATC (RADAR)
05:31AM -34.8919 149.6212 36° Northeast 175 201 7,100 -120 Descending Aus ATC (RADAR)
05:31AM -34.8705 149.6442 41° Northeast 174 200 7,200 60 Climbing Aus ATC (RADAR)
05:32AM -34.8374 149.6849 45° Northeast 167 192 7,200  Level Aus ATC (RADAR)
05:33AM -34.8251 149.7027 50° Northeast 164 189 7,200  Level Aus ATC (RADAR)
05:33AM -34.8037 149.7312 48° Northeast 170 196 7,200 -120 Level Aus ATC (RADAR)
05:34AM -34.7828 149.7596 48° Northeast 168 193 7,100  Descending Aus ATC (RADAR)
05:35AM -34.7644 149.7848 48° Northeast 169 194 7,200  Climbing Aus ATC (RADAR)
05:35AM -34.7396 149.8153 45° Northeast 167 192 7,100 -120 Descending Aus ATC (RADAR)
05:36AM -34.7258 149.8325 46° Northeast 167 192 7,100 60 Level Aus ATC (RADAR)
05:36AM -34.7063 149.8559 45° Northeast 168 193 7,200  Climbing Aus ATC (RADAR)
05:38AM -34.6664 149.9144 50° Northeast 167 192 7,100  Descending Aus ATC (RADAR)
05:38AM -34.6588 149.9245 48° Northeast 165 190 7,200 120 Climbing Aus ATC (RADAR)
05:39AM -34.6406 149.9482 47° Northeast 164 189 7,200 60 Level Aus ATC (RADAR)
05:39AM -34.6176 149.9789 48° Northeast 164 189 7,300 -120 Climbing Aus ATC (RADAR)
05:40AM -34.5992 150.0034 48° Northeast 166 191 7,100 -240 Descending Aus ATC (RADAR)
05:41AM -34.5736 150.0337 44° Northeast 169 194 7,000  Descending Aus ATC (RADAR)
05:41AM -34.5604 150.0508 47° Northeast 167 192 7,100 60 Climbing Aus ATC (RADAR)
05:42AM -34.5419 150.0760 48° Northeast 168 193 7,100 60 Level Aus ATC (RADAR)
05:43AM -34.5102 150.1165 46° Northeast 163 188 7,200 60 Climbing Aus ATC (RADAR)
05:43AM -34.4973 150.1330 47° Northeast 160 184 7,200 60 Level Aus ATC (RADAR)
05:44AM -34.4785 150.1572 47° Northeast 167 192 7,300 60 Climbing Aus ATC (RADAR)
05:45AM -34.4514 150.1906 46° Northeast 165 190 7,300 -120 Level Aus ATC (RADAR)
05:45AM -34.4315 150.2151 45° Northeast 172 198 7,200 -180 Descending Aus ATC (RADAR)
05:46AM -34.4045 150.2513 48° Northeast 171 197 7,100  Descending Aus ATC (RADAR)
05:46AM -34.3909 150.2680 45° Northeast 167 192 7,200 60 Climbing Aus ATC (RADAR)
05:47AM -34.3721 150.2924 47° Northeast 168 193 7,200 -240 Level Aus ATC (RADAR)
05:48AM -34.3443 150.3270 46° Northeast 171 197 6,900 -420 Descending Aus ATC (RADAR)
05:48AM -34.3290 150.3454 45° Northeast 179 206 6,700 -420 Descending Aus ATC (RADAR)
05:49AM -34.3079 150.3703 44° Northeast 179 206 6,500 -540 Descending Aus ATC (RADAR)
05:50AM -34.2776 150.4077 46° Northeast 184 212 6,000 -600 Descending Aus ATC (RADAR)
05:50AM -34.2569 150.4347 47° Northeast 184 212 5,700 -420 Descending Aus ATC (RADAR)
05:51AM -34.2337 150.4657 48° Northeast 181 208 5,500 -300 Descending Aus ATC (RADAR)
05:51AM -34.2193 150.4843 47° Northeast 179 206 5,400 -120 Descending Aus ATC (RADAR)
05:52AM -34.1969 150.5115 45° Northeast 170 196 5,400 60 Level Aus ATC (RADAR)
05:53AM -34.1670 150.5493 46° Northeast 167 192 5,500 -240 Climbing Aus ATC (RADAR)
05:53AM -34.1525 150.5669 45° Northeast 173 199 5,100 -840 Descending Aus ATC (RADAR)
05:54AM -34.1312 150.5932 46° Northeast 182 209 4,700 -720 Descending Aus ATC (RADAR)
05:55AM -34.1047 150.6271 47° Northeast 181 208 4,200 -600 Descending Aus ATC (RADAR)
05:55AM -34.0839 150.6529 46° Northeast 180 207 3,900 -600 Descending Aus ATC (RADAR)
05:56AM -34.0636 150.6783 46° Northeast 178 205 3,500 -720 Descending Aus ATC (RADAR)
05:56AM -34.0425 150.7035 45° Northeast 178 205 3,100 -720 Descending Aus ATC (RADAR)
05:57AM -34.0245 150.7310 52° Northeast 176 203 2,700 -540 Descending Aus ATC (RADAR)
05:58AM -34.0001 150.7764 57° Northeast 171 197 2,300 -540 Descending Aus ATC (RADAR)
05:58AM -33.9896 150.7970 59° Northeast 169 194 2,000 -420 Descending Aus ATC (RADAR)
05:59AM -33.9752 150.8247 58° Northeast 163 188 1,900 -300 Descending Aus ATC (RADAR)
06:00AM -33.9574 150.8589 58° Northeast 157 181 1,600 -420 Descending Aus ATC (RADAR)
06:00AM -33.9441 150.8845 58° Northeast 153 176 1,400 -240 Descending Aus ATC (RADAR)
06:01AM -33.9282 150.9163 59° Northeast 144 166 1,300 -300 Descending Aus ATC (RADAR)
06:01AM -33.9183 150.9314 51° Northeast 138 159 1,100 -600 Descending Aus ATC (RADAR)
06:02AM -33.9061 150.9508 53° Northeast 125 144 700 -600 Descending Aus ATC (RADAR)
06:03AM -33.9178 150.9803 116° Southeast 91 105 200 -540 Descending Aus ATC (RADAR)